Stephenville, Texas
Current Conditions -  °F | °C
As of 3:35 PM on Saturday 25 Oct 2014 (Local Time) from KSEP Reporting Station
Clear Clear  
Wind Chill: 30°   Ceiling: Unl
Heat Index: 30°   Visibility: 10mi
Dew Point: 12°   Wind: 7mph
Humidity: 33%   Direction: 210°SSW
Pressure: 30.12"   Gusts: NA
Location:  32.22°N, 98.2°W
Report Text: KSEP 252035Z AUTO 21006KT 10SM CLR 30/12 A3012 RMK AO2 T03030123
Loading
Personal Weather Stations






























Interactive Weather Map New forecast layout! Learn more

10-Day Weather Forecast

Advertisements
Track Severe Weather on mobile